Time;durP1;ratioP1;P1;durP2;ratioP2;P2;SDS_P1;SDS_P2;PMS_P1;PMS_P2;Temp;Humidity;BMP_temperature;BMP_pressure;BME280_temperature;BME280_humidity;BME280_pressure;Samples;Min_cycle;Max_cycle;Signal;HPM_P1;HPM_P2
2023/03/27 00:02:19;;;;;;;3.10;0.70;;;;;;;;;;5029233;28;20038;-80
2023/03/27 00:04:44;;;;;;;3.55;1.30;;;;;;;;;;5034120;28;20044;-80
2023/03/27 00:07:11;;;;;;;1.80;1.00;;;;;;;;;;5023748;28;20065;-78
2023/03/27 00:09:38;;;;;;;1.27;0.90;;;;;;;;;;5002995;28;20058;-78
2023/03/27 00:12:04;;;;;;;1.90;1.10;;;;;;;;;;5002461;28;20037;-78
2023/03/27 00:14:30;;;;;;;1.38;0.85;;;;;;;;;;5002612;28;20909;-77
2023/03/27 00:16:58;;;;;;;8.13;1.25;;;;;;;;;;5001875;28;20421;-78
2023/03/27 00:19:24;;;;;;;1.00;0.70;;;;;;;;;;5002941;28;20096;-79
2023/03/27 00:21:49;;;;;;;2.95;1.10;;;;;;;;;;5002888;28;20101;-79
2023/03/27 00:24:16;;;;;;;5.75;0.98;;;;;;;;;;5003450;28;20084;-79
2023/03/27 00:26:41;;;;;;;1.02;0.70;;;;;;;;;;5002107;28;20026;-78
2023/03/27 00:29:07;;;;;;;0.93;0.77;;;;;;;;;;5002305;28;20030;-79
2023/03/27 00:31:32;;;;;;;1.13;0.95;;;;;;;;;;5001509;28;20017;-76
2023/03/27 00:33:57;;;;;;;2.05;0.90;;;;;;;;;;5003734;28;20018;-78
2023/03/27 00:36:23;;;;;;;1.48;0.95;;;;;;;;;;5002476;28;20006;-79
2023/03/27 00:38:51;;;;;;;1.65;1.25;;;;;;;;;;5003732;28;20101;-79
2023/03/27 00:41:18;;;;;;;1.95;0.77;;;;;;;;;;5003205;28;20040;-78
2023/03/27 00:43:44;;;;;;;1.10;0.98;;;;;;;;;;5002260;28;20034;-79
2023/03/27 00:46:20;;;;;;;2.00;1.25;;;;;;;;;;5002761;28;20018;-80
2023/03/27 00:48:46;;;;;;;1.35;1.02;;;;;;;;;;5001978;28;20032;-77
2023/03/27 00:51:12;;;;;;;1.65;1.30;;;;;;;;;;5001776;28;20025;-77
2023/03/27 00:53:37;;;;;;;1.50;1.20;;;;;;;;;;5000152;28;20061;-77
2023/03/27 00:56:06;;;;;;;1.58;1.23;;;;;;;;;;5001244;28;20052;-78
2023/03/27 00:58:43;;;;;;;4.43;0.90;;;;;;;;;;4987025;28;20524;-75
2023/03/27 01:01:10;;;;;;;1.75;1.20;;;;;;;;;;5000225;28;20357;-77
2023/03/27 01:03:36;;;;;;;1.30;1.00;;;;;;;;;;5000487;28;20034;-78
2023/03/27 01:06:02;;;;;;;2.97;1.30;;;;;;;;;;5000143;28;20029;-79
2023/03/27 01:08:29;;;;;;;1.15;1.00;;;;;;;;;;5003262;28;20377;-79
2023/03/27 01:11:01;;;;;;;1.38;1.20;;;;;;;;;;5003390;28;20014;-79
2023/03/27 01:13:47;;;;;;;1.58;1.10;;;;;;;;;;5004071;28;20076;-79
2023/03/27 01:16:18;;;;;;;2.70;1.23;;;;;;;;;;4998903;28;20231;-79
2023/03/27 01:19:02;;;;;;;1.35;1.05;;;;;;;;;;5007495;28;20113;-79
2023/03/27 01:21:46;;;;;;;1.25;0.77;;;;;;;;;;5004858;28;20022;-78
2023/03/27 01:24:14;;;;;;;1.65;1.17;;;;;;;;;;5005819;28;20357;-79
2023/03/27 01:26:58;;;;;;;1.70;1.05;;;;;;;;;;5006458;28;20021;-79
2023/03/27 01:29:30;;;;;;;1.30;1.08;;;;;;;;;;5003729;28;20037;-78
2023/03/27 01:32:07;;;;;;;4.95;2.50;;;;;;;;;;5005227;28;20025;-78
2023/03/27 01:34:37;;;;;;;2.55;1.10;;;;;;;;;;5004957;28;20018;-78
2023/03/27 01:37:15;;;;;;;3.38;2.13;;;;;;;;;;5003589;28;20112;-78
2023/03/27 01:39:58;;;;;;;2.30;1.48;;;;;;;;;;5005802;28;20026;-78
2023/03/27 01:42:32;;;;;;;1.65;1.23;;;;;;;;;;5004563;28;20030;-79
2023/03/27 01:45:10;;;;;;;1.83;1.20;;;;;;;;;;5005560;28;20507;-79
2023/03/27 01:48:01;;;;;;;3.00;1.42;;;;;;;;;;5006203;28;20111;-79
2023/03/27 01:50:29;;;;;;;2.50;1.02;;;;;;;;;;4999859;28;20113;-78
2023/03/27 01:52:58;;;;;;;2.22;0.98;;;;;;;;;;5005171;28;20022;-78
2023/03/27 01:55:26;;;;;;;1.38;1.10;;;;;;;;;;5002661;28;20061;-78
2023/03/27 01:58:07;;;;;;;1.00;0.90;;;;;;;;;;5005260;28;20029;-78
2023/03/27 02:00:34;;;;;;;1.80;1.38;;;;;;;;;;5007259;28;20145;-80
2023/03/27 02:03:04;;;;;;;2.35;1.50;;;;;;;;;;4993707;28;20929;-80
2023/03/27 02:05:29;;;;;;;;;;;;;;;;;;5006151;28;20014;-79
2023/03/27 02:07:58;;;;;;;3.53;2.90;;;;;;;;;;5004968;28;19961;-77
2023/03/27 02:10:31;;;;;;;2.30;2.10;;;;;;;;;;5005849;28;20460;-77
2023/03/27 02:13:17;;;;;;;1.58;1.35;;;;;;;;;;5003902;28;20026;-75
2023/03/27 02:15:44;;;;;;;0.98;0.70;;;;;;;;;;5004544;28;20033;-77
2023/03/27 02:18:12;;;;;;;1.02;0.60;;;;;;;;;;5002694;28;20259;-76
2023/03/27 02:20:39;;;;;;;1.13;0.70;;;;;;;;;;5003551;28;20062;-76
2023/03/27 02:23:05;;;;;;;2.55;0.90;;;;;;;;;;5002637;28;20030;-75
2023/03/27 02:25:33;;;;;;;1.50;0.98;;;;;;;;;;5006778;28;20108;-80
2023/03/27 02:28:10;;;;;;;1.58;0.75;;;;;;;;;;5010870;28;20014;-80
2023/03/27 02:30:46;;;;;;;1.63;0.70;;;;;;;;;;5006916;28;20531;-79
2023/03/27 02:33:14;;;;;;;1.00;0.80;;;;;;;;;;4993113;28;20045;-80
2023/03/27 02:35:47;;;;;;;1.52;0.90;;;;;;;;;;5006715;28;20132;-79
2023/03/27 02:38:17;;;;;;;1.15;0.70;;;;;;;;;;5016150;28;20089;-80
2023/03/27 02:40:46;;;;;;;1.25;0.80;;;;;;;;;;5015804;28;20014;-80
2023/03/27 02:43:22;;;;;;;0.70;0.70;;;;;;;;;;5010720;28;20049;-79
2023/03/27 02:46:11;;;;;;;2.45;0.80;;;;;;;;;;5013614;28;20033;-79
2023/03/27 02:48:41;;;;;;;1.20;0.80;;;;;;;;;;5006207;28;20068;-80
2023/03/27 02:51:21;;;;;;;1.02;0.80;;;;;;;;;;5013064;28;20037;-79
2023/03/27 02:53:53;;;;;;;4.78;1.08;;;;;;;;;;5014782;28;20029;-81
2023/03/27 02:56:21;;;;;;;1.58;0.88;;;;;;;;;;5011499;28;20041;-80
2023/03/27 02:58:49;;;;;;;0.80;0.60;;;;;;;;;;5009875;28;20535;-79
2023/03/27 03:01:16;;;;;;;1.23;0.70;;;;;;;;;;5011277;28;20022;-81
2023/03/27 03:03:52;;;;;;;1.63;0.75;;;;;;;;;;5018251;28;20107;-81
2023/03/27 03:06:19;;;;;;;1.13;0.70;;;;;;;;;;5013524;28;20022;-80
2023/03/27 03:08:45;;;;;;;2.00;0.93;;;;;;;;;;5019126;28;20110;-80
2023/03/27 03:11:13;;;;;;;4.13;1.20;;;;;;;;;;5015600;28;20021;-80
2023/03/27 03:13:39;;;;;;;1.38;0.77;;;;;;;;;;5015609;28;20491;-81
2023/03/27 03:16:05;;;;;;;1.20;0.80;;;;;;;;;;5012149;28;20620;-80
2023/03/27 03:18:31;;;;;;;3.03;0.73;;;;;;;;;;5011672;28;20018;-78
2023/03/27 03:20:56;;;;;;;1.48;0.82;;;;;;;;;;5002330;28;20080;-76
2023/03/27 03:23:21;;;;;;;1.33;0.80;;;;;;;;;;5002698;28;20422;-78
2023/03/27 03:25:49;;;;;;;1.42;0.85;;;;;;;;;;5002816;28;20022;-78
2023/03/27 03:28:16;;;;;;;1.95;0.90;;;;;;;;;;5002918;28;20117;-79
2023/03/27 03:30:44;;;;;;;0.90;0.77;;;;;;;;;;5004922;28;20026;-77
2023/03/27 03:33:09;;;;;;;2.75;1.20;;;;;;;;;;5002874;28;20454;-77
2023/03/27 03:35:34;;;;;;;1.73;0.80;;;;;;;;;;5002421;28;20025;-76
2023/03/27 03:38:00;;;;;;;1.63;0.90;;;;;;;;;;5003586;28;20033;-77
2023/03/27 03:40:25;;;;;;;1.25;0.90;;;;;;;;;;5006532;28;20026;-77
2023/03/27 03:42:51;;;;;;;1.30;0.88;;;;;;;;;;5006947;28;20021;-78
2023/03/27 03:45:17;;;;;;;1.77;0.90;;;;;;;;;;5002340;28;20013;-78
2023/03/27 03:47:43;;;;;;;1.50;0.80;;;;;;;;;;5005778;28;20811;-77
2023/03/27 03:50:09;;;;;;;1.67;1.05;;;;;;;;;;5004943;28;20021;-77
2023/03/27 03:52:34;;;;;;;1.88;0.88;;;;;;;;;;5006424;28;20009;-78
2023/03/27 03:55:00;;;;;;;4.40;0.98;;;;;;;;;;5006763;28;20033;-78
2023/03/27 03:57:25;;;;;;;5.22;1.00;;;;;;;;;;5002189;28;20022;-76
2023/03/27 03:59:50;;;;;;;2.17;1.13;;;;;;;;;;5003716;28;20132;-76
2023/03/27 04:02:28;;;;;;;5.05;0.90;;;;;;;;;;5003265;28;20041;-77
2023/03/27 04:04:57;;;;;;;1.65;1.10;;;;;;;;;;4995248;28;20030;-77
2023/03/27 04:07:23;;;;;;;1.80;0.95;;;;;;;;;;5004075;28;20064;-76
2023/03/27 04:09:49;;;;;;;3.83;1.17;;;;;;;;;;5002000;28;20061;-77
2023/03/27 04:12:15;;;;;;;2.00;1.27;;;;;;;;;;4997695;28;20026;-77
2023/03/27 04:14:40;;;;;;;3.20;0.80;;;;;;;;;;5004859;28;20117;-76
2023/03/27 04:17:06;;;;;;;1.10;0.80;;;;;;;;;;5002409;28;20100;-77
2023/03/27 04:19:31;;;;;;;1.88;0.80;;;;;;;;;;4999292;28;20022;-77
2023/03/27 04:22:00;;;;;;;1.90;0.85;;;;;;;;;;5001009;28;20301;-77
2023/03/27 04:24:29;;;;;;;2.10;1.00;;;;;;;;;;5001541;28;20423;-76
2023/03/27 04:26:57;;;;;;;1.23;1.00;;;;;;;;;;5001143;28;20757;-77
2023/03/27 04:29:22;;;;;;;1.00;0.75;;;;;;;;;;5001678;28;20572;-76
2023/03/27 04:31:47;;;;;;;1.48;1.15;;;;;;;;;;5001125;28;20033;-76
2023/03/27 04:34:12;;;;;;;1.42;1.05;;;;;;;;;;5000707;28;20022;-75
2023/03/27 04:36:38;;;;;;;1.63;0.95;;;;;;;;;;5001659;28;20068;-77
2023/03/27 04:39:03;;;;;;;1.55;1.00;;;;;;;;;;5002969;28;20399;-77
2023/03/27 04:41:29;;;;;;;1.92;1.60;;;;;;;;;;4999158;28;20033;-76
2023/03/27 04:43:54;;;;;;;3.33;1.17;;;;;;;;;;5002898;28;20459;-76
2023/03/27 04:46:20;;;;;;;1.95;1.20;;;;;;;;;;5000913;28;20042;-76
2023/03/27 04:48:45;;;;;;;3.58;1.30;;;;;;;;;;5002356;28;20038;-76
2023/03/27 04:51:11;;;;;;;1.42;1.10;;;;;;;;;;5002052;28;20053;-77
2023/03/27 04:53:36;;;;;;;3.20;1.55;;;;;;;;;;5005699;28;21054;-76
2023/03/27 04:56:02;;;;;;;1.67;0.88;;;;;;;;;;5006665;28;20048;-77
2023/03/27 04:58:27;;;;;;;1.88;1.05;;;;;;;;;;4986891;28;20058;-76
2023/03/27 05:00:54;;;;;;;2.00;1.20;;;;;;;;;;5005985;28;20038;-79
2023/03/27 05:03:20;;;;;;;2.10;1.40;;;;;;;;;;5009504;28;20044;-78
2023/03/27 05:05:46;;;;;;;7.70;1.88;;;;;;;;;;5006154;28;20026;-78
2023/03/27 05:08:11;;;;;;;6.18;2.58;;;;;;;;;;4992886;28;20022;-75
2023/03/27 05:10:37;;;;;;;4.30;1.45;;;;;;;;;;4997350;28;20119;-75
2023/03/27 05:13:02;;;;;;;15.02;1.80;;;;;;;;;;4999337;28;20046;-80
2023/03/27 05:15:31;;;;;;;10.95;1.40;;;;;;;;;;5004145;28;20028;-75
2023/03/27 05:17:56;;;;;;;7.25;1.38;;;;;;;;;;5003405;28;20472;-78
2023/03/27 05:20:23;;;;;;;1.55;1.27;;;;;;;;;;5003446;28;20030;-77
2023/03/27 05:22:52;;;;;;;1.48;1.30;;;;;;;;;;5002309;28;20380;-78
2023/03/27 05:25:17;;;;;;;1.85;1.40;;;;;;;;;;5002586;28;20026;-79
2023/03/27 05:27:44;;;;;;;2.33;1.40;;;;;;;;;;5003670;28;20032;-78
2023/03/27 05:30:09;;;;;;;2.67;1.92;;;;;;;;;;5002716;28;20030;-78
2023/03/27 05:32:35;;;;;;;3.90;1.70;;;;;;;;;;5003501;28;20095;-83
2023/03/27 05:35:00;;;;;;;2.40;1.33;;;;;;;;;;5002100;28;20026;-77
2023/03/27 05:37:26;;;;;;;1.08;0.98;;;;;;;;;;4996743;28;20277;-76
2023/03/27 05:39:51;;;;;;;1.45;0.90;;;;;;;;;;4985924;28;20162;-79
2023/03/27 05:42:17;;;;;;;1.42;1.17;;;;;;;;;;4999630;28;20033;-90
2023/03/27 05:44:42;;;;;;;1.40;1.30;;;;;;;;;;4991879;28;20038;-88
2023/03/27 05:47:09;;;;;;;4.90;1.90;;;;;;;;;;4986381;28;20026;-83
2023/03/27 05:49:34;;;;;;;33.33;2.33;;;;;;;;;;4990968;28;20022;-77
2023/03/27 05:52:00;;;;;;;1.70;1.42;;;;;;;;;;4981455;28;20030;-78
2023/03/27 05:54:25;;;;;;;3.42;1.80;;;;;;;;;;4988473;28;20105;-78
2023/03/27 05:56:50;;;;;;;4.00;2.25;;;;;;;;;;4989757;28;20024;-78
2023/03/27 05:59:16;;;;;;;1.80;1.58;;;;;;;;;;4990571;28;20050;-80
2023/03/27 06:01:41;;;;;;;2.25;2.05;;;;;;;;;;5007722;28;20455;-79
2023/03/27 06:04:07;;;;;;;2.95;1.55;;;;;;;;;;5008802;28;20069;-76
2023/03/27 06:06:33;;;;;;;2.15;1.90;;;;;;;;;;5006799;28;20033;-78
2023/03/27 06:08:58;;;;;;;1.60;1.50;;;;;;;;;;5014951;28;20518;-81
2023/03/27 06:11:24;;;;;;;1.85;1.58;;;;;;;;;;4989753;28;20029;-82
2023/03/27 06:13:49;;;;;;;3.55;1.73;;;;;;;;;;4987722;28;20314;-78
2023/03/27 06:16:19;;;;;;;1.23;1.13;;;;;;;;;;4988050;28;20034;-79
2023/03/27 06:18:45;;;;;;;1.67;1.35;;;;;;;;;;5000879;28;20025;-80
2023/03/27 06:21:10;;;;;;;3.20;1.50;;;;;;;;;;5002891;28;20026;-78
2023/03/27 06:23:35;;;;;;;3.72;1.65;;;;;;;;;;5018114;28;20088;-75
2023/03/27 06:28:37;;;;;;;2.38;2.10;;;;;;;;;;5124053;22;20135;-78
2023/03/27 06:31:03;;;;;;;2.10;2.00;;;;;;;;;;5031494;28;20058;-80
2023/03/27 06:33:28;;;;;;;2.63;2.20;;;;;;;;;;5021803;28;20022;-78
2023/03/27 06:35:58;;;;;;;2.90;2.17;;;;;;;;;;5013623;28;20058;-80
2023/03/27 06:38:25;;;;;;;1.88;1.77;;;;;;;;;;5017715;28;20033;-79
2023/03/27 06:40:50;;;;;;;3.60;2.10;;;;;;;;;;5020039;28;20029;-79
2023/03/27 06:43:17;;;;;;;3.17;2.15;;;;;;;;;;5011664;28;20983;-78
2023/03/27 06:45:44;;;;;;;3.58;1.90;;;;;;;;;;4998929;28;20519;-77
2023/03/27 06:48:10;;;;;;;2.42;1.95;;;;;;;;;;4994070;28;20022;-77
2023/03/27 06:50:35;;;;;;;2.88;2.63;;;;;;;;;;4994276;28;20029;-78
2023/03/27 06:53:01;;;;;;;2.15;1.90;;;;;;;;;;5077522;22;20078;-80
2023/03/27 06:55:27;;;;;;;5.95;2.25;;;;;;;;;;5003464;28;20034;-79
2023/03/27 06:57:54;;;;;;;2.00;1.80;;;;;;;;;;4998102;28;20029;-78
2023/03/27 07:00:23;;;;;;;3.80;2.15;;;;;;;;;;4989706;28;20034;-79
2023/03/27 07:03:08;;;;;;;2.22;2.03;;;;;;;;;;4996270;28;20057;-78
2023/03/27 07:05:35;;;;;;;2.05;1.70;;;;;;;;;;4996251;28;20049;-80
2023/03/27 07:08:01;;;;;;;3.85;2.10;;;;;;;;;;5006635;28;20022;-78
2023/03/27 07:10:27;;;;;;;2.85;2.55;;;;;;;;;;5000199;28;20018;-80
2023/03/27 07:12:55;;;;;;;2.33;2.03;;;;;;;;;;5005231;28;20026;-79
2023/03/27 07:15:21;;;;;;;5.57;2.53;;;;;;;;;;5002446;28;20034;-77
2023/03/27 07:17:53;;;;;;;2.22;2.03;;;;;;;;;;5003541;28;20085;-84
2023/03/27 07:20:19;;;;;;;2.20;2.10;;;;;;;;;;5011566;28;20049;-82
2023/03/27 07:22:44;;;;;;;2.55;2.35;;;;;;;;;;4992948;28;20483;-78
2023/03/27 07:25:11;;;;;;;2.97;2.67;;;;;;;;;;4992253;28;20046;-75
2023/03/27 07:27:37;;;;;;;3.17;2.88;;;;;;;;;;4993889;28;20017;-75
2023/03/27 07:30:03;;;;;;;4.55;2.53;;;;;;;;;;4987839;28;20033;-75
2023/03/27 07:32:28;;;;;;;4.93;2.65;;;;;;;;;;4996377;28;20021;-76
2023/03/27 07:34:55;;;;;;;2.72;2.53;;;;;;;;;;5001732;28;20029;-78
2023/03/27 07:37:21;;;;;;;2.20;2.10;;;;;;;;;;4994409;28;20486;-78
2023/03/27 07:39:47;;;;;;;3.40;2.60;;;;;;;;;;4998755;28;20060;-76
2023/03/27 07:42:12;;;;;;;2.58;2.38;;;;;;;;;;4992683;28;20030;-76
2023/03/27 07:44:37;;;;;;;2.60;2.40;;;;;;;;;;4994764;28;20488;-80
2023/03/27 07:47:02;;;;;;;3.15;2.83;;;;;;;;;;4989739;28;20476;-78
2023/03/27 07:49:28;;;;;;;3.08;2.88;;;;;;;;;;4988223;28;20446;-78
2023/03/27 07:51:53;;;;;;;2.83;2.63;;;;;;;;;;4985862;28;20033;-84
2023/03/27 07:54:20;;;;;;;2.90;2.70;;;;;;;;;;4985933;28;20054;-87
2023/03/27 07:56:46;;;;;;;3.75;2.70;;;;;;;;;;4999431;28;20586;-77
2023/03/27 07:59:12;;;;;;;2.97;2.70;;;;;;;;;;4995942;28;20594;-78
2023/03/27 08:01:37;;;;;;;2.75;2.40;;;;;;;;;;4998768;28;20587;-77
2023/03/27 08:04:02;;;;;;;5.40;3.03;;;;;;;;;;5001236;28;20025;-76
2023/03/27 08:06:28;;;;;;;2.58;2.28;;;;;;;;;;5000193;28;20044;-74
2023/03/27 08:08:54;;;;;;;2.88;2.67;;;;;;;;;;5001599;28;20036;-76
2023/03/27 08:11:19;;;;;;;2.92;2.72;;;;;;;;;;4985604;28;20405;-77
2023/03/27 08:13:44;;;;;;;2.92;2.72;;;;;;;;;;5005047;28;20479;-77
2023/03/27 08:16:12;;;;;;;3.22;2.92;;;;;;;;;;5000620;28;20076;-78
2023/03/27 08:18:37;;;;;;;6.10;3.45;;;;;;;;;;5002294;28;20014;-78
2023/03/27 08:21:04;;;;;;;2.78;2.58;;;;;;;;;;5004624;28;20132;-78
2023/03/27 08:23:31;;;;;;;5.10;2.67;;;;;;;;;;5008016;28;20072;-77
2023/03/27 08:25:59;;;;;;;3.03;2.83;;;;;;;;;;5001615;28;20026;-78
2023/03/27 08:28:28;;;;;;;2.70;2.50;;;;;;;;;;4995398;28;20097;-78
2023/03/27 08:30:54;;;;;;;9.85;2.83;;;;;;;;;;4990954;28;20034;-77
2023/03/27 08:33:21;;;;;;;2.65;2.45;;;;;;;;;;5004198;28;20408;-76
2023/03/27 08:35:49;;;;;;;2.97;2.78;;;;;;;;;;5003134;28;20018;-79
2023/03/27 08:38:15;;;;;;;2.65;2.45;;;;;;;;;;5005772;28;20111;-80
2023/03/27 08:40:46;;;;;;;3.05;2.58;;;;;;;;;;5021491;28;20037;-80
2023/03/27 08:43:14;;;;;;;3.00;2.80;;;;;;;;;;5017303;28;20041;-79
2023/03/27 08:45:40;;;;;;;2.85;2.53;;;;;;;;;;4994630;28;20034;-76
2023/03/27 08:48:10;;;;;;;3.60;2.53;;;;;;;;;;5010304;28;20029;-78
2023/03/27 08:50:44;;;;;;;2.92;2.50;;;;;;;;;;5010140;28;20056;-78
2023/03/27 08:53:29;;;;;;;3.95;2.90;;;;;;;;;;5004782;28;20054;-77
2023/03/27 08:55:55;;;;;;;3.17;2.65;;;;;;;;;;4997683;28;20511;-78
2023/03/27 08:58:20;;;;;;;3.33;3.03;;;;;;;;;;5010873;28;20022;-78
2023/03/27 09:00:58;;;;;;;4.50;3.38;;;;;;;;;;5004531;28;20026;-76
2023/03/27 09:03:25;;;;;;;3.90;3.60;;;;;;;;;;5001230;28;20034;-77
2023/03/27 09:05:55;;;;;;;3.33;3.03;;;;;;;;;;5001617;28;20053;-76
2023/03/27 09:08:32;;;;;;;3.22;3.03;;;;;;;;;;4994786;28;20061;-77
2023/03/27 09:11:21;;;;;;;5.30;3.10;;;;;;;;;;4996737;28;20040;-78
2023/03/27 09:13:51;;;;;;;3.55;3.15;;;;;;;;;;4992910;28;20033;-77
2023/03/27 09:16:16;;;;;;;;;;;;;;;;;;4991234;28;20033;-77
2023/03/27 09:18:41;;;;;;;5.93;3.83;;;;;;;;;;5009704;28;19909;-79
2023/03/27 09:21:16;;;;;;;4.07;3.72;;;;;;;;;;5234455;22;20317;-79
2023/03/27 09:23:44;;;;;;;8.68;3.42;;;;;;;;;;5001192;28;20022;-79
2023/03/27 09:26:11;;;;;;;4.10;3.70;;;;;;;;;;5003075;28;20078;-80
2023/03/27 09:28:40;;;;;;;4.60;3.38;;;;;;;;;;4990847;28;20025;-80
2023/03/27 09:31:21;;;;;;;4.97;3.47;;;;;;;;;;5000551;28;20026;-80
2023/03/27 09:33:46;;;;;;;5.25;4.78;;;;;;;;;;5019533;28;20272;-81
2023/03/27 09:36:12;;;;;;;5.07;4.68;;;;;;;;;;5014810;28;20539;-80
2023/03/27 09:41:09;;;;;;;6.35;3.10;;;;;;;;;;5562145;22;20046;-80
2023/03/27 09:43:48;;;;;;;3.25;2.95;;;;;;;;;;5133722;22;20041;-78
2023/03/27 09:59:38;;;;;;;5.78;5.28;;;;;;;;;;5594305;23;20058;-80
2023/03/27 10:07:41;;;;;;;3.67;3.38;;;;;;;;;;5217377;23;20296;-78
2023/03/27 10:12:42;;;;;;;4.70;2.90;;;;;;;;;;6089445;23;20017;-79
2023/03/27 10:17:47;;;;;;;3.25;3.03;;;;;;;;;;5431195;23;20057;-88
2023/03/27 10:20:17;;;;;;;3.85;3.10;;;;;;;;;;4995028;28;20572;-88
2023/03/27 10:22:49;;;;;;;2.85;2.65;;;;;;;;;;5032534;28;19997;-83
2023/03/27 10:30:26;;;;;;;5.95;2.90;;;;;;;;;;5949469;23;21576;-87
2023/03/27 10:32:51;;;;;;;3.15;2.85;;;;;;;;;;4991216;28;20508;-88
2023/03/27 10:35:21;;;;;;;3.90;3.35;;;;;;;;;;5006556;28;20029;-87
2023/03/27 10:37:47;;;;;;;3.30;3.08;;;;;;;;;;4996907;28;20511;-85
2023/03/27 10:40:17;;;;;;;5.97;2.97;;;;;;;;;;5000795;28;20204;-87
2023/03/27 10:42:43;;;;;;;3.63;2.90;;;;;;;;;;5017430;28;20117;-86
2023/03/27 10:45:19;;;;;;;4.28;3.60;;;;;;;;;;5009391;28;20040;-86
2023/03/27 10:47:47;;;;;;;7.88;3.53;;;;;;;;;;4997297;28;20117;-85
2023/03/27 10:50:18;;;;;;;5.55;3.45;;;;;;;;;;4965998;28;20050;-87
2023/03/27 10:52:54;;;;;;;3.80;3.50;;;;;;;;;;5001653;28;20018;-85
2023/03/27 10:55:20;;;;;;;4.22;3.83;;;;;;;;;;5008970;28;20014;-83
2023/03/27 10:57:48;;;;;;;4.30;3.33;;;;;;;;;;4991660;28;20097;-83
2023/03/27 11:00:18;;;;;;;3.72;3.33;;;;;;;;;;4995943;28;20321;-83
2023/03/27 11:02:51;;;;;;;3.15;2.90;;;;;;;;;;4977869;28;20076;-83
2023/03/27 11:05:19;;;;;;;3.30;3.00;;;;;;;;;;5004389;28;20041;-81
2023/03/27 11:07:48;;;;;;;3.28;3.03;;;;;;;;;;5001019;28;20029;-83
2023/03/27 11:10:22;;;;;;;3.70;3.40;;;;;;;;;;4993566;28;20021;-83
2023/03/27 11:12:52;;;;;;;3.15;2.85;;;;;;;;;;4999775;28;20034;-83
2023/03/27 11:15:21;;;;;;;3.45;2.85;;;;;;;;;;5001121;28;20484;-84
2023/03/27 11:17:46;;;;;;;3.47;3.17;;;;;;;;;;4978169;28;20848;-82
2023/03/27 11:20:23;;;;;;;3.10;2.90;;;;;;;;;;4995326;28;20037;-79
2023/03/27 11:23:14;;;;;;;3.42;3.13;;;;;;;;;;4985593;28;20025;-82
2023/03/27 11:25:48;;;;;;;3.40;3.10;;;;;;;;;;4966658;28;20516;-80
2023/03/27 11:28:13;;;;;;;3.30;3.08;;;;;;;;;;5003076;28;20037;-84
2023/03/27 11:31:05;;;;;;;3.85;2.92;;;;;;;;;;4990188;28;20493;-84
2023/03/27 11:33:40;;;;;;;2.70;2.50;;;;;;;;;;4981430;28;20113;-82
2023/03/27 11:36:10;;;;;;;4.22;2.67;;;;;;;;;;5001444;28;20032;-82
2023/03/27 11:38:38;;;;;;;3.13;2.83;;;;;;;;;;4996425;28;20844;-84
2023/03/27 11:41:03;;;;;;;6.10;5.15;;;;;;;;;;4990828;28;20101;-83
2023/03/27 11:43:30;;;;;;;3.72;3.42;;;;;;;;;;4982302;28;20140;-83
2023/03/27 11:46:10;;;;;;;2.83;2.63;;;;;;;;;;5000998;28;20053;-83
2023/03/27 11:48:38;;;;;;;3.47;3.08;;;;;;;;;;4999895;28;20010;-86
2023/03/27 11:51:14;;;;;;;3.20;2.92;;;;;;;;;;4980059;28;20028;-77
2023/03/27 11:53:40;;;;;;;2.97;1.48;;;;;;;;;;5008963;28;20557;-77
2023/03/27 11:56:09;;;;;;;1.60;1.50;;;;;;;;;;4981570;28;19994;-80
2023/03/27 11:58:37;;;;;;;2.05;1.38;;;;;;;;;;4994091;28;20018;-77
2023/03/27 12:01:18;;;;;;;1.85;1.60;;;;;;;;;;5029024;28;20034;-80
2023/03/27 12:03:52;;;;;;;4.25;2.30;;;;;;;;;;5029691;28;20073;-80
2023/03/27 12:06:21;;;;;;;4.75;2.30;;;;;;;;;;5025097;28;20018;-80
2023/03/27 12:08:50;;;;;;;2.20;1.80;;;;;;;;;;5011067;28;20019;-80
2023/03/27 12:11:17;;;;;;;1.90;1.70;;;;;;;;;;5024896;28;20025;-80
2023/03/27 12:13:52;;;;;;;2.45;1.90;;;;;;;;;;5018904;28;20015;-81
2023/03/27 12:18:56;;;;;;;5.10;2.58;;;;;;;;;;5884291;23;20100;-79
2023/03/27 12:21:33;;;;;;;4.38;1.98;;;;;;;;;;5042054;28;20017;-80
2023/03/27 12:23:59;;;;;;;4.35;1.98;;;;;;;;;;5017873;28;20077;-81
2023/03/27 12:26:25;;;;;;;2.58;2.30;;;;;;;;;;5019609;28;20046;-81
2023/03/27 12:31:34;;;;;;;2.13;1.92;;;;;;;;;;5442450;23;20053;-79
2023/03/27 12:34:29;;;;;;;3.50;2.50;;;;;;;;;;5029645;28;20113;-79
2023/03/27 12:36:58;;;;;;;2.72;2.50;;;;;;;;;;4987336;28;20034;-79
2023/03/27 12:39:24;;;;;;;5.38;2.80;;;;;;;;;;5022766;28;20024;-78
2023/03/27 12:41:50;;;;;;;5.53;1.95;;;;;;;;;;5237455;23;20673;-76
2023/03/27 12:44:25;;;;;;;10.25;1.70;;;;;;;;;;5014265;28;20041;-79
2023/03/27 12:47:03;;;;;;;4.30;1.23;;;;;;;;;;5026573;28;20117;-78
2023/03/27 12:49:37;;;;;;;2.50;0.50;;;;;;;;;;5025675;28;20053;-78
2023/03/27 12:52:04;;;;;;;1.60;0.85;;;;;;;;;;5015187;28;20033;-78
2023/03/27 12:54:30;;;;;;;4.43;1.20;;;;;;;;;;4989910;28;20391;-77
2023/03/27 12:57:05;;;;;;;3.88;0.70;;;;;;;;;;5024379;28;20036;-75
2023/03/27 12:59:33;;;;;;;2.33;1.38;;;;;;;;;;5023905;28;20024;-79
2023/03/27 13:02:05;;;;;;;2.33;1.08;;;;;;;;;;5025077;28;20487;-76
2023/03/27 13:04:30;;;;;;;1.48;0.80;;;;;;;;;;5026337;28;20037;-79
2023/03/27 13:06:56;;;;;;;2.08;0.38;;;;;;;;;;5027043;28;20597;-80
2023/03/27 13:09:27;;;;;;;2.03;0.77;;;;;;;;;;5028943;28;20049;-79
2023/03/27 13:12:15;;;;;;;1.48;0.82;;;;;;;;;;5033178;28;20272;-79
2023/03/27 13:14:46;;;;;;;3.40;2.90;;;;;;;;;;5015128;28;20110;-80
2023/03/27 13:17:20;;;;;;;6.75;5.93;;;;;;;;;;5042582;28;20489;-81
2023/03/27 13:19:46;;;;;;;1.25;0.70;;;;;;;;;;5048259;28;20032;-80
2023/03/27 13:22:17;;;;;;;0.30;0.20;;;;;;;;;;5021888;28;20026;-81
2023/03/27 13:25:01;;;;;;;0.20;0.10;;;;;;;;;;5517888;23;20285;-81
2023/03/27 13:27:39;;;;;;;0.47;0.20;;;;;;;;;;4992979;28;20057;-83
2023/03/27 13:30:06;;;;;;;0.90;0.30;;;;;;;;;;5021229;28;20003;-82
2023/03/27 13:45:30;;;;;;;0.10;0.10;;;;;;;;;;5413594;23;20078;-82
2023/03/27 13:50:40;;;;;;;0.17;0.00;;;;;;;;;;5664022;23;20031;-81
2023/03/27 13:55:56;;;;;;;1.75;0.08;;;;;;;;;;5204712;23;20072;-81
2023/03/27 13:58:40;;;;;;;0.10;0.10;;;;;;;;;;5055099;28;20045;-81
2023/03/27 14:01:24;;;;;;;2.33;0.73;;;;;;;;;;5039566;28;20120;-82
2023/03/27 14:03:53;;;;;;;0.25;0.20;;;;;;;;;;5038503;28;20033;-80
2023/03/27 14:06:21;;;;;;;0.30;0.20;;;;;;;;;;5031076;28;20029;-80
2023/03/27 14:09:06;;;;;;;1.67;0.32;;;;;;;;;;5049428;28;20013;-80
2023/03/27 14:11:48;;;;;;;0.38;0.13;;;;;;;;;;5054090;28;20021;-81
2023/03/27 14:14:19;;;;;;;0.85;0.17;;;;;;;;;;5014902;28;20034;-79
2023/03/27 14:16:49;;;;;;;1.45;1.20;;;;;;;;;;5050450;28;20038;-80
2023/03/27 14:19:14;;;;;;;10.95;7.35;;;;;;;;;;5042207;28;20038;-80
2023/03/27 14:21:51;;;;;;;2.78;2.30;;;;;;;;;;5003038;28;20022;-80
2023/03/27 14:26:52;;;;;;;1.05;0.75;;;;;;;;;;5111073;23;20054;-81
2023/03/27 15:01:07;;;;;;;4.90;4.10;;;;;;;;;;5435198;23;20053;-80
2023/03/27 15:03:35;;;;;;;4.13;3.72;;;;;;;;;;5056238;28;20048;-80
2023/03/27 15:06:01;;;;;;;3.97;3.25;;;;;;;;;;5056243;28;20022;-80
2023/03/27 15:08:32;;;;;;;4.30;2.72;;;;;;;;;;5234066;23;20049;-79
2023/03/27 15:18:52;;;;;;;2.20;0.90;;;;;;;;;;5159507;23;20105;-80
2023/03/27 15:21:37;;;;;;;2.53;0.60;;;;;;;;;;5027881;28;20017;-79
2023/03/27 15:24:04;;;;;;;0.85;0.85;;;;;;;;;;5029287;28;20138;-80
2023/03/27 15:26:30;;;;;;;1.70;0.70;;;;;;;;;;5022671;28;20017;-80
2023/03/27 15:29:06;;;;;;;1.08;0.68;;;;;;;;;;5006479;28;20045;-79
2023/03/27 15:31:33;;;;;;;0.93;0.80;;;;;;;;;;5032078;28;20033;-80
2023/03/27 15:34:04;;;;;;;0.80;0.80;;;;;;;;;;5032826;28;20028;-80
2023/03/27 15:36:31;;;;;;;1.15;0.80;;;;;;;;;;5030436;28;20009;-79
2023/03/27 15:39:01;;;;;;;1.10;1.00;;;;;;;;;;5030821;28;20124;-79
2023/03/27 15:41:26;;;;;;;;;;;;;;;;;;5033210;28;20025;-80
2023/03/27 15:43:59;;;;;;;2.33;1.00;;;;;;;;;;5020172;28;19917;-80
2023/03/27 15:46:25;;;;;;;1.55;0.90;;;;;;;;;;5011358;28;20025;-80
2023/03/27 15:48:55;;;;;;;1.27;0.82;;;;;;;;;;5023018;28;20418;-79
2023/03/27 15:51:20;;;;;;;1.20;0.88;;;;;;;;;;5014490;28;20025;-80
2023/03/27 15:53:52;;;;;;;1.58;1.30;;;;;;;;;;5036719;28;20039;-80
2023/03/27 15:56:21;;;;;;;2.10;1.90;;;;;;;;;;5035307;28;20025;-81
2023/03/27 15:58:55;;;;;;;4.30;2.63;;;;;;;;;;5033078;28;20121;-80
2023/03/27 16:01:22;;;;;;;3.30;2.25;;;;;;;;;;5046861;28;20055;-81
2023/03/27 16:03:49;;;;;;;2.03;1.83;;;;;;;;;;5031356;28;20092;-79
2023/03/27 16:06:31;;;;;;;95.50;53.93;;;;;;;;;;5044031;28;20052;-81
2023/03/27 16:08:57;;;;;;;8.65;7.82;;;;;;;;;;5022273;28;20487;-79
2023/03/27 16:11:53;;;;;;;5.32;3.90;;;;;;;;;;4996960;28;20026;-80
2023/03/27 16:14:20;;;;;;;3.92;2.95;;;;;;;;;;4980224;28;20542;-79
2023/03/27 16:16:46;;;;;;;26.02;15.93;;;;;;;;;;4993432;28;20024;-80
2023/03/27 16:19:13;;;;;;;8.48;7.60;;;;;;;;;;5029956;28;20167;-79
2023/03/27 16:21:51;;;;;;;4.15;3.42;;;;;;;;;;5012901;28;20026;-80
2023/03/27 16:24:16;;;;;;;3.75;1.88;;;;;;;;;;5020859;28;20968;-79
2023/03/27 16:26:42;;;;;;;5.35;1.80;;;;;;;;;;5018839;28;20081;-78
2023/03/27 16:29:09;;;;;;;2.33;2.13;;;;;;;;;;4986025;28;20022;-78
2023/03/27 16:31:34;;;;;;;2.80;2.13;;;;;;;;;;4995705;28;20092;-79
2023/03/27 16:34:00;;;;;;;1.77;1.00;;;;;;;;;;5012856;28;20523;-79
2023/03/27 16:36:28;;;;;;;1.70;1.38;;;;;;;;;;5010743;28;20033;-79